createdAt,value
2023-04-19T00:01:59.906Z,32.12
2023-04-19T00:04:05.562Z,32.18
2023-04-19T00:06:10.871Z,32.2
2023-04-19T00:08:16.035Z,32.21
2023-04-19T00:10:21.259Z,32.23
2023-04-19T00:12:26.340Z,32.35
2023-04-19T00:14:31.495Z,32.35
2023-04-19T00:16:36.709Z,32.35
2023-04-19T00:18:41.895Z,32.4
2023-04-19T00:20:47.013Z,32.32
2023-04-19T00:22:52.014Z,32.24
2023-04-19T00:24:57.205Z,32.16
2023-04-19T00:27:02.336Z,32.12
2023-04-19T00:29:07.466Z,32.05
2023-04-19T00:31:12.712Z,31.97
2023-04-19T00:33:17.961Z,31.83
2023-04-19T00:35:23.015Z,31.82
2023-04-19T00:37:28.098Z,31.76
2023-04-19T00:39:33.196Z,31.71
2023-04-19T00:41:38.226Z,31.67
2023-04-19T00:43:43.249Z,31.56
2023-04-19T00:45:48.488Z,31.54
2023-04-19T00:47:53.731Z,31.48
2023-04-19T00:49:58.841Z,31.41
2023-04-19T00:52:03.880Z,31.36
2023-04-19T00:54:08.896Z,31.31
2023-04-19T00:56:13.999Z,31.33
2023-04-19T00:58:19.033Z,31.28
2023-04-19T01:00:24.097Z,31.25
2023-04-19T01:02:29.754Z,31.14
2023-04-19T01:04:37.552Z,31.09
2023-04-19T01:06:42.604Z,31.05
2023-04-19T01:08:47.622Z,31.05
2023-04-19T01:10:52.673Z,31.01
2023-04-19T01:12:57.683Z,30.98
2023-04-19T01:15:02.731Z,30.92
2023-04-19T01:17:07.834Z,30.94
2023-04-19T01:19:13.010Z,30.89
2023-04-19T01:21:18.054Z,30.82
2023-04-19T01:23:23.105Z,30.75
2023-04-19T01:25:28.145Z,30.71
2023-04-19T01:27:33.197Z,30.72
2023-04-19T01:29:38.259Z,30.61
2023-04-19T01:31:43.500Z,30.51
2023-04-19T01:33:48.577Z,30.34
2023-04-19T01:35:53.650Z,30.27
2023-04-19T01:37:58.974Z,30.25
2023-04-19T01:40:04.001Z,30.04
2023-04-19T01:42:09.042Z,30
2023-04-19T01:44:14.681Z,29.95
2023-04-19T01:46:19.948Z,29.94
2023-04-19T01:48:25.068Z,29.7
2023-04-19T01:50:30.108Z,29.56
2023-04-19T01:52:35.252Z,29.51
2023-04-19T01:54:40.300Z,29.45
2023-04-19T01:56:45.366Z,29.32
2023-04-19T01:58:50.434Z,29.28
2023-04-19T02:00:55.591Z,29.32
2023-04-19T02:03:01.606Z,29.28
2023-04-19T02:05:06.805Z,29.26
2023-04-19T02:07:11.834Z,29.31
2023-04-19T02:09:16.864Z,29.26
2023-04-19T02:11:21.944Z,29.32
2023-04-19T02:13:27.029Z,29.27
2023-04-19T02:15:32.064Z,29.27
2023-04-19T02:17:37.302Z,29.11
2023-04-19T02:19:42.392Z,28.88
2023-04-19T02:21:47.421Z,28.75
2023-04-19T02:23:52.483Z,28.4
2023-04-19T02:25:57.529Z,28.24
2023-04-19T02:28:02.649Z,27.96
2023-04-19T02:30:07.868Z,27.98
2023-04-19T02:32:12.918Z,27.77
2023-04-19T02:34:19.054Z,27.8
2023-04-19T02:36:24.051Z,27.65
2023-04-19T02:38:29.111Z,27.6
2023-04-19T02:40:34.305Z,27.64
2023-04-19T02:42:39.366Z,27.64
2023-04-19T02:44:44.510Z,27.39
2023-04-19T02:46:49.558Z,27.3
2023-04-19T02:48:54.754Z,27.22
2023-04-19T02:50:59.785Z,26.99
2023-04-19T02:53:04.834Z,26.76
2023-04-19T02:55:17.923Z,26.73
2023-04-19T02:57:22.956Z,26.74
2023-04-19T02:59:28.125Z,26.75
2023-04-19T03:01:33.349Z,26.57
2023-04-19T03:03:38.856Z,26.54
2023-04-19T03:05:43.958Z,26.5
2023-04-19T03:07:49.036Z,26.54
2023-04-19T03:09:54.142Z,26.47
2023-04-19T03:11:59.289Z,26.49
2023-04-19T03:14:04.393Z,26.52
2023-04-19T03:16:09.657Z,26.44
2023-04-19T03:18:14.813Z,26.37
2023-04-19T03:20:19.822Z,26.43
2023-04-19T03:22:24.858Z,26.45
2023-04-19T03:24:29.980Z,26.41
2023-04-19T03:26:34.957Z,26.45
2023-04-19T03:28:40.008Z,26.46
2023-04-19T03:30:45.117Z,26.34
2023-04-19T03:32:50.393Z,26.23
2023-04-19T03:34:55.458Z,26.27
2023-04-19T03:37:00.605Z,26.11
2023-04-19T03:39:05.672Z,26.06
2023-04-19T03:41:10.918Z,25.99
2023-04-19T03:43:16.010Z,26.01
2023-04-19T03:45:21.069Z,26.04
2023-04-19T03:47:26.249Z,25.95
2023-04-19T03:49:31.308Z,25.92
2023-04-19T03:51:36.316Z,25.89
2023-04-19T03:53:41.409Z,25.86
2023-04-19T03:55:46.431Z,25.86
2023-04-19T03:57:51.550Z,25.73
2023-04-19T03:59:56.697Z,25.71
2023-04-19T04:02:02.256Z,25.65
2023-04-19T04:04:08.265Z,25.59
2023-04-19T04:06:13.350Z,25.41
2023-04-19T04:08:18.437Z,25.28
2023-04-19T04:10:23.470Z,25.46
2023-04-19T04:12:28.561Z,25.64
2023-04-19T04:14:33.628Z,25.73
2023-04-19T04:16:39.024Z,25.91
2023-04-19T04:18:44.141Z,26
2023-04-19T04:20:49.226Z,26.12
2023-04-19T04:22:54.267Z,26.18
2023-04-19T04:24:59.381Z,26.23
2023-04-19T04:27:04.467Z,26.36
2023-04-19T04:29:09.577Z,26.46
2023-04-19T04:31:14.770Z,26.4
2023-04-19T04:33:19.848Z,26.43
2023-04-19T04:35:24.888Z,26.47
2023-04-19T04:37:29.924Z,26.57
2023-04-19T04:39:34.929Z,26.69
2023-04-19T04:41:40.035Z,26.7
2023-04-19T04:43:45.053Z,26.76
2023-04-19T04:45:50.207Z,26.95
2023-04-19T04:47:55.437Z,27.07
2023-04-19T04:50:00.522Z,27.1
2023-04-19T04:52:05.554Z,27.08
2023-04-19T04:54:10.574Z,27.11
2023-04-19T04:56:16.133Z,27.17
2023-04-19T04:58:22.884Z,27.24
2023-04-19T05:00:28.031Z,27.27
2023-04-19T05:02:33.615Z,27.61
2023-04-19T05:04:39.057Z,28.6
2023-04-19T05:06:44.174Z,28.77
2023-04-19T05:08:49.193Z,28.71
2023-04-19T05:10:54.211Z,28.64
2023-04-19T05:12:59.337Z,28.85
2023-04-19T05:15:04.357Z,28.97
2023-04-19T05:17:09.698Z,29.14
2023-04-19T05:19:14.729Z,29.25
2023-04-19T05:21:19.801Z,29.44
2023-04-19T05:23:24.911Z,29.32
2023-04-19T05:25:30.118Z,28.94
2023-04-19T05:27:35.185Z,29.16
2023-04-19T05:29:40.228Z,29.43
2023-04-19T05:31:45.450Z,29.55
2023-04-19T05:33:50.591Z,29.67
2023-04-19T05:35:55.626Z,29.79
2023-04-19T05:38:00.778Z,29.89
2023-04-19T05:40:05.814Z,29.96
2023-04-19T05:42:10.873Z,30.1
2023-04-19T05:44:17.134Z,30.55
2023-04-19T05:46:22.595Z,30.03
2023-04-19T05:48:27.716Z,30.9
2023-04-19T05:50:32.747Z,31.49
2023-04-19T05:52:37.980Z,31.86
2023-04-19T05:54:43.144Z,32.08
2023-04-19T05:56:48.323Z,32.23
2023-04-19T05:58:53.371Z,32.31
2023-04-19T06:00:58.425Z,32.02
2023-04-19T06:03:04.170Z,32.4
2023-04-19T06:05:13.905Z,31.79
2023-04-19T06:07:43.035Z,32.08
2023-04-19T06:09:48.953Z,32.56
2023-04-19T06:11:54.480Z,32.49
2023-04-19T06:13:59.537Z,32.97
2023-04-19T06:16:04.879Z,33.27
2023-04-19T06:18:10.354Z,33.57
2023-04-19T06:20:24.016Z,33.04
2023-04-19T06:22:29.053Z,33.12
2023-04-19T06:24:36.594Z,32.9
2023-04-19T06:26:41.674Z,32.48
2023-04-19T06:28:46.758Z,33.31
2023-04-19T06:30:51.934Z,33.44
2023-04-19T06:32:57.194Z,33.17
2023-04-19T06:35:02.294Z,33.19
2023-04-19T06:37:07.350Z,33.12
2023-04-19T06:39:12.362Z,33.03
2023-04-19T06:41:17.363Z,33.14
2023-04-19T06:43:22.557Z,33.09
2023-04-19T06:45:27.582Z,33.08
2023-04-19T06:47:35.623Z,33.03
2023-04-19T06:49:40.829Z,33.04
2023-04-19T06:51:45.882Z,33.11
2023-04-19T06:53:50.934Z,32.78
2023-04-19T06:55:55.884Z,32.74
2023-04-19T06:58:00.812Z,32.68
2023-04-19T07:00:05.766Z,32.62
2023-04-19T07:02:11.038Z,32.68
2023-04-19T07:04:17.745Z,32.53
2023-04-19T07:06:23.095Z,32.71
2023-04-19T07:08:50.530Z,30.42
2023-04-19T07:10:55.655Z,30.91
2023-04-19T07:13:00.785Z,29.85
2023-04-19T07:15:05.936Z,29.59
2023-04-19T07:17:10.996Z,29.91
2023-04-19T07:19:16.093Z,29.62
2023-04-19T07:21:21.093Z,29.13
2023-04-19T07:23:26.115Z,29.03
2023-04-19T07:25:31.300Z,28.42
2023-04-19T07:27:36.566Z,28.3
2023-04-19T07:29:41.670Z,28.24
2023-04-19T07:31:46.818Z,28.26
2023-04-19T07:33:52.143Z,28.5
2023-04-19T07:35:57.315Z,28.27
2023-04-19T07:38:02.484Z,28.08
2023-04-19T07:40:07.571Z,28.01
2023-04-19T07:42:12.738Z,27.68
2023-04-19T07:44:18.691Z,27.82
2023-04-19T07:46:24.255Z,27.58
2023-04-19T07:48:29.355Z,27.63
2023-04-19T07:50:34.533Z,27.63
2023-04-19T07:52:39.649Z,27.65
2023-04-19T07:54:44.722Z,27.67
2023-04-19T07:56:49.805Z,27.63
2023-04-19T07:59:10.825Z,27.68
2023-04-19T08:01:15.984Z,27.6
2023-04-19T08:03:21.811Z,27.59
2023-04-19T08:05:27.765Z,27.46
2023-04-19T08:07:32.916Z,27.54
2023-04-19T08:09:38.235Z,27.57
2023-04-19T08:11:43.457Z,27.72
2023-04-19T08:14:27.031Z,27.88
2023-04-19T08:17:25.858Z,27.58
2023-04-19T08:19:33.158Z,27.56
2023-04-19T08:21:43.885Z,27.73
2023-04-19T08:23:54.803Z,27.75
2023-04-19T08:25:59.922Z,27.64
2023-04-19T08:28:04.965Z,27.82
2023-04-19T08:30:09.987Z,27.87
2023-04-19T08:32:15.252Z,27.88
2023-04-19T08:34:20.468Z,27.71
2023-04-19T08:36:56.169Z,27.42
2023-04-19T08:39:32.794Z,27.54
2023-04-19T08:41:38.999Z,27.27
2023-04-19T08:43:44.271Z,27.37
2023-04-19T08:45:49.673Z,27.46
2023-04-19T08:48:04.193Z,27.4
2023-04-19T08:50:38.606Z,27.34
2023-04-19T08:55:17.810Z,27.45
2023-04-19T08:57:22.935Z,27.51
2023-04-19T08:59:28.044Z,27.58
2023-04-19T09:01:38.593Z,27.38
2023-04-19T09:04:35.373Z,27.1
2023-04-19T09:06:42.950Z,27
2023-04-19T09:08:48.017Z,27.28
2023-04-19T09:10:53.062Z,27.1
2023-04-19T09:12:58.800Z,27.21
2023-04-19T09:15:05.135Z,27.17
2023-04-19T09:17:10.203Z,27.17
2023-04-19T09:19:27.175Z,27.18
2023-04-19T09:21:32.626Z,27.16
2023-04-19T09:23:37.741Z,27.23
2023-04-19T09:26:24.100Z,27.14
2023-04-19T09:28:29.190Z,27.14
2023-04-19T09:30:55.069Z,27.07
2023-04-19T09:33:05.529Z,27.1
2023-04-19T09:35:10.665Z,27.07
2023-04-19T09:39:44.068Z,27.07
2023-04-19T09:41:49.108Z,27.04
2023-04-19T09:45:13.021Z,27.13
2023-04-19T09:47:32.742Z,27.02
2023-04-19T09:49:51.350Z,27.15
2023-04-19T09:51:56.612Z,27.14
2023-04-19T09:54:01.620Z,27.24
2023-04-19T09:56:07.112Z,27.4
2023-04-19T09:58:12.141Z,27.54
2023-04-19T10:00:17.634Z,27.53
2023-04-19T10:02:23.343Z,27.48
2023-04-19T10:05:20.244Z,27.37
2023-04-19T10:07:33.303Z,27.46
2023-04-19T10:09:55.141Z,27.39
2023-04-19T10:12:52.157Z,27.33
2023-04-19T10:15:03.919Z,27.29
2023-04-19T10:17:09.090Z,27.42
2023-04-19T10:19:14.518Z,27.47
2023-04-19T10:21:19.801Z,27.67
2023-04-19T10:23:24.913Z,27.72
2023-04-19T10:25:30.019Z,27.65
2023-04-19T10:27:35.130Z,27.63
2023-04-19T10:29:40.274Z,27.84
2023-04-19T10:31:45.636Z,27.99
2023-04-19T10:33:50.839Z,28.17
2023-04-19T10:35:55.889Z,28.19
2023-04-19T10:38:00.959Z,28.47
2023-04-19T10:40:06.048Z,28.6
2023-04-19T10:42:11.102Z,28.72
2023-04-19T10:44:16.161Z,28.91
2023-04-19T10:46:21.347Z,28.86
2023-04-19T10:48:26.565Z,28.98
2023-04-19T10:50:52.928Z,29.08
2023-04-19T10:52:57.973Z,29.24
2023-04-19T10:55:03.158Z,29.26
2023-04-19T10:57:08.650Z,29.39
2023-04-19T10:59:14.262Z,29.44
2023-04-19T11:01:19.505Z,29.58
2023-04-19T11:03:25.128Z,29.63
2023-04-19T11:05:30.207Z,29.73
2023-04-19T11:07:35.263Z,29.88
2023-04-19T11:09:40.422Z,29.99
2023-04-19T11:11:45.496Z,29.99
2023-04-19T11:13:50.545Z,30.02
2023-04-19T11:15:55.737Z,30.05
2023-04-19T11:18:14.887Z,30.2
2023-04-19T11:20:19.946Z,30.34
2023-04-19T11:22:25.012Z,30.39
2023-04-19T11:24:30.156Z,30.41
2023-04-19T11:26:35.225Z,30.54
2023-04-19T11:28:40.435Z,30.56
2023-04-19T11:30:45.500Z,30.59
2023-04-19T11:32:51.057Z,30.65
2023-04-19T11:34:56.248Z,30.49
2023-04-19T11:37:01.369Z,30.64
2023-04-19T11:39:06.495Z,30.69
2023-04-19T11:41:11.597Z,30.68
2023-04-19T11:43:16.694Z,30.66
2023-04-19T11:45:36.833Z,30.76
2023-04-19T11:47:43.700Z,30.8
2023-04-19T11:49:48.826Z,30.74
2023-04-19T11:51:53.995Z,28.4
2023-04-19T11:53:59.063Z,29.99
2023-04-19T11:56:04.252Z,30.21
2023-04-19T11:58:09.357Z,31.01
2023-04-19T12:00:14.839Z,31.02
2023-04-19T12:02:20.227Z,30.81
2023-04-19T12:04:26.022Z,31.25
2023-04-19T12:06:31.231Z,31.31
2023-04-19T12:08:36.578Z,31.49
2023-04-19T12:10:41.650Z,31.6
2023-04-19T12:12:46.719Z,31.47
2023-04-19T12:14:51.902Z,31.98
2023-04-19T12:16:57.164Z,32.05
2023-04-19T12:19:02.258Z,31.99
2023-04-19T12:21:07.378Z,31.97
2023-04-19T12:23:12.518Z,31.9
2023-04-19T12:25:17.620Z,31.91
2023-04-19T12:27:22.764Z,32.14
2023-04-19T12:29:27.872Z,31.77
2023-04-19T12:31:33.065Z,31.95
2023-04-19T12:33:38.110Z,32.42
2023-04-19T12:35:43.202Z,32.3
2023-04-19T12:37:48.301Z,32.5
2023-04-19T12:39:56.341Z,32.41
2023-04-19T12:42:01.656Z,32.35
2023-04-19T12:44:06.814Z,32.17
2023-04-19T12:46:12.172Z,32.09
2023-04-19T12:48:17.262Z,32.05
2023-04-19T12:50:22.381Z,32.17
2023-04-19T12:52:27.427Z,32.43
2023-04-19T12:54:32.502Z,32.31
2023-04-19T12:56:37.564Z,32.43
2023-04-19T12:58:42.749Z,32.32
2023-04-19T13:00:47.958Z,32.24
2023-04-19T13:02:53.566Z,32.29
2023-04-19T13:04:59.321Z,32.23
2023-04-19T13:07:04.452Z,32.31
2023-04-19T13:09:17.099Z,32.43
2023-04-19T13:11:22.287Z,32.48
2023-04-19T13:13:27.479Z,32.43
2023-04-19T13:15:32.724Z,32.54
2023-04-19T13:17:37.980Z,32.63
2023-04-19T13:19:43.053Z,32.86
2023-04-19T13:21:48.218Z,32.94
2023-04-19T13:23:53.276Z,32.78
2023-04-19T13:25:58.383Z,32.68
2023-04-19T13:28:03.474Z,32.8
2023-04-19T13:30:08.857Z,32.92
2023-04-19T13:32:13.979Z,33.02
2023-04-19T13:34:19.785Z,33.04
2023-04-19T13:36:25.014Z,32.9
2023-04-19T13:38:30.060Z,32.8
2023-04-19T13:40:35.255Z,33.13
2023-04-19T13:42:40.290Z,32.93
2023-04-19T13:44:45.329Z,33.21
2023-04-19T13:46:50.573Z,33.19
2023-04-19T13:48:55.786Z,33.15
2023-04-19T13:51:00.851Z,33.2
2023-04-19T13:53:06.065Z,33.04
2023-04-19T13:55:11.236Z,33.1
2023-04-19T13:57:16.291Z,33.1
2023-04-19T13:59:21.332Z,33.04
2023-04-19T14:01:26.666Z,33.38
2023-04-19T14:03:32.281Z,33.5
2023-04-19T14:05:37.520Z,33.56
2023-04-19T14:07:42.659Z,34.35
2023-04-19T14:09:48.005Z,34.65
2023-04-19T14:11:53.105Z,34.77
2023-04-19T14:13:58.268Z,34.89
2023-04-19T14:16:03.540Z,35.02
2023-04-19T14:18:08.810Z,35.23
2023-04-19T14:20:14.008Z,35.43
2023-04-19T14:22:19.129Z,35.65
2023-04-19T14:24:24.259Z,35.44
2023-04-19T14:26:30.290Z,34.97
2023-04-19T14:28:35.336Z,34.26
2023-04-19T14:30:40.414Z,33.58
2023-04-19T14:32:46.118Z,33.06
2023-04-19T14:34:51.278Z,33.72
2023-04-19T14:36:56.364Z,33.63
2023-04-19T14:39:01.497Z,33.95
2023-04-19T14:41:06.692Z,33.9
2023-04-19T14:43:11.833Z,34.09
2023-04-19T14:45:17.030Z,33.83
2023-04-19T14:47:22.145Z,33.48
2023-04-19T14:49:27.340Z,33.38
2023-04-19T14:51:32.426Z,32.94
2023-04-19T14:53:37.498Z,32.86
2023-04-19T14:55:42.624Z,32.95
2023-04-19T14:57:47.808Z,32.31
2023-04-19T14:59:52.959Z,30.67
2023-04-19T15:01:58.455Z,30.66
2023-04-19T15:04:04.286Z,30.84
2023-04-19T15:06:09.468Z,30.52
2023-04-19T15:08:32.310Z,30.57
2023-04-19T15:10:40.584Z,30.46
2023-04-19T15:12:45.704Z,30.54
2023-04-19T15:14:50.773Z,30.18
2023-04-19T15:16:56.007Z,30.1
2023-04-19T15:19:01.064Z,30.13
2023-04-19T15:21:06.292Z,30.51
2023-04-19T15:23:11.453Z,33.48
2023-04-19T15:25:16.703Z,33.03
2023-04-19T15:27:21.797Z,32.29
2023-04-19T15:29:26.911Z,31.92
2023-04-19T15:31:32.178Z,31.59
2023-04-19T15:33:37.321Z,31.2
2023-04-19T15:35:42.447Z,31.03
2023-04-19T15:37:47.466Z,30.64
2023-04-19T15:39:52.642Z,30.57
2023-04-19T15:41:57.907Z,30.22
2023-04-19T15:44:02.954Z,30.48
2023-04-19T15:46:08.317Z,29.81
2023-04-19T15:48:13.425Z,29.69
2023-04-19T15:50:18.536Z,29.15
2023-04-19T15:52:23.604Z,29.4
2023-04-19T15:54:28.711Z,29.39
2023-04-19T15:56:33.848Z,28.22
2023-04-19T15:58:39.029Z,29.17
2023-04-19T16:00:44.160Z,28.11
2023-04-19T16:02:49.592Z,29.44
2023-04-19T16:04:55.002Z,29.86
2023-04-19T16:07:00.340Z,29.56
2023-04-19T16:09:05.410Z,29.64
2023-04-19T16:11:10.635Z,29.14
2023-04-19T16:13:15.724Z,29.22
2023-04-19T16:15:20.824Z,29.05
2023-04-19T16:17:26.039Z,28.96
2023-04-19T16:19:31.158Z,28.22
2023-04-19T16:21:36.370Z,28.59
2023-04-19T16:23:41.405Z,28.66
2023-04-19T16:25:46.499Z,28.45
2023-04-19T16:27:51.545Z,29.17
2023-04-19T16:29:56.646Z,28.8
2023-04-19T16:32:01.933Z,28.69
2023-04-19T16:34:07.149Z,28.44
2023-04-19T16:36:12.214Z,28.3
2023-04-19T16:38:17.394Z,28.27
2023-04-19T16:40:22.611Z,27.96
2023-04-19T16:42:27.689Z,28.1
2023-04-19T16:44:32.820Z,27.84
2023-04-19T16:46:38.104Z,27.96
2023-04-19T16:48:43.237Z,27.9
2023-04-19T16:50:48.287Z,28.03
2023-04-19T16:52:53.375Z,27.95
2023-04-19T16:54:58.474Z,27.79
2023-04-19T16:57:03.642Z,27.73
2023-04-19T16:59:08.730Z,27.89
2023-04-19T17:01:14.009Z,27.62
2023-04-19T17:03:19.691Z,27.75
2023-04-19T17:05:25.123Z,27.9
2023-04-19T17:07:30.232Z,27.57
2023-04-19T17:09:35.342Z,27.6
2023-04-19T17:11:40.458Z,27.81
2023-04-19T17:13:45.661Z,27.44
2023-04-19T17:15:50.834Z,27.62
2023-04-19T17:17:56.271Z,27.42
2023-04-19T17:20:01.512Z,27.2
2023-04-19T17:22:07.197Z,27.48
2023-04-19T17:24:12.325Z,28.02
2023-04-19T17:26:17.363Z,27.88
2023-04-19T17:28:22.520Z,27.54
2023-04-19T17:30:27.664Z,27.75
2023-04-19T17:32:32.880Z,28.16
2023-04-19T17:34:39.583Z,28.69
2023-04-19T17:36:44.759Z,28.91
2023-04-19T17:38:49.893Z,29.46
2023-04-19T17:40:55.130Z,29.79
2023-04-19T17:43:00.240Z,29.62
2023-04-19T17:45:05.389Z,29.95
2023-04-19T17:47:10.497Z,29.6
2023-04-19T17:49:15.825Z,29.84
2023-04-19T17:51:21.172Z,29.78
2023-04-19T17:53:26.371Z,29.81
2023-04-19T17:55:31.477Z,29.89
2023-04-19T17:57:36.699Z,29.93
2023-04-19T17:59:41.798Z,30
2023-04-19T18:01:47.037Z,30.16
2023-04-19T18:03:52.582Z,30.18
2023-04-19T18:05:57.701Z,30.42
2023-04-19T18:08:02.763Z,30.53
2023-04-19T18:10:07.808Z,29.98
2023-04-19T18:12:12.866Z,30.01
2023-04-19T18:14:17.955Z,29.67
2023-04-19T18:16:23.234Z,29.67
2023-04-19T18:18:28.372Z,29.79
2023-04-19T18:20:33.457Z,30.25
2023-04-19T18:22:38.559Z,30.55
2023-04-19T18:24:43.653Z,30.99
2023-04-19T18:26:48.881Z,31.02
2023-04-19T18:28:54.060Z,30.99
2023-04-19T18:30:59.213Z,31.05
2023-04-19T18:33:04.680Z,31.15
2023-04-19T18:35:09.929Z,31.32
2023-04-19T18:37:15.170Z,31.32
2023-04-19T18:39:20.675Z,31.39
2023-04-19T18:41:25.762Z,31.68
2023-04-19T18:43:32.308Z,31.69
2023-04-19T18:45:37.811Z,32.12
2023-04-19T18:47:43.023Z,31.91
2023-04-19T18:50:06.678Z,31.54
2023-04-19T18:52:11.776Z,32.07
2023-04-19T18:54:16.943Z,31.49
2023-04-19T18:56:30.761Z,31.32
2023-04-19T18:58:50.115Z,31.76
2023-04-19T19:00:55.519Z,31.38
2023-04-19T19:03:03.970Z,31.64
2023-04-19T19:05:10.276Z,32.04
2023-04-19T19:07:39.579Z,31.52
2023-04-19T19:10:00.841Z,31.55
2023-04-19T19:12:06.802Z,31.82
2023-04-19T19:14:11.842Z,31.91
2023-04-19T19:16:21.038Z,32.28
2023-04-19T19:18:27.481Z,31.54
2023-04-19T19:20:32.816Z,31.54
2023-04-19T19:22:37.985Z,31.38
2023-04-19T19:24:43.434Z,31.6
2023-04-19T19:26:48.525Z,30.51
2023-04-19T19:28:53.732Z,30.13
2023-04-19T19:30:59.103Z,30.22
2023-04-19T19:33:05.166Z,29.61
2023-04-19T19:35:10.883Z,28.83
2023-04-19T19:37:16.104Z,29.82
2023-04-19T19:39:21.810Z,29.46
2023-04-19T19:42:07.816Z,28.84
2023-04-19T19:44:13.022Z,28.88
2023-04-19T19:46:18.202Z,28.92
2023-04-19T19:48:25.208Z,28.78
2023-04-19T19:51:42.140Z,28.98
2023-04-19T19:53:52.729Z,27.8
2023-04-19T19:55:59.200Z,28.5
2023-04-19T19:58:52.027Z,28.7
2023-04-19T20:00:58.040Z,28
2023-04-19T20:03:04.245Z,27.85
2023-04-19T20:05:12.043Z,27.65
2023-04-19T20:08:00.903Z,27.35
2023-04-19T20:10:06.859Z,27.3
2023-04-19T20:12:11.882Z,27.27
2023-04-19T20:14:17.005Z,28.3
2023-04-19T20:16:22.322Z,27.61
2023-04-19T20:18:27.546Z,28.15
2023-04-19T20:20:32.600Z,27.41
2023-04-19T20:22:37.716Z,26.99
2023-04-19T20:24:42.792Z,26.81
2023-04-19T20:26:47.949Z,26.7
2023-04-19T20:28:53.051Z,26.7
2023-04-19T20:30:58.149Z,26.67
2023-04-19T20:33:03.517Z,26.85
2023-04-19T20:35:08.644Z,26.78
2023-04-19T20:37:13.703Z,26.98
2023-04-19T20:39:19.656Z,26.43
2023-04-19T20:41:24.786Z,27.6
2023-04-19T20:43:29.974Z,27.4
2023-04-19T20:45:35.174Z,26.67
2023-04-19T20:47:40.549Z,26.39
2023-04-19T20:49:45.679Z,26.44
2023-04-19T20:51:50.741Z,27.3
2023-04-19T20:53:55.860Z,26.91
2023-04-19T20:56:00.951Z,26.4
2023-04-19T20:58:06.016Z,26.34
2023-04-19T21:00:11.062Z,27.38
2023-04-19T21:02:16.393Z,26.6
2023-04-19T21:04:21.941Z,26.56
2023-04-19T21:06:27.283Z,26.39
2023-04-19T21:08:32.428Z,26.49
2023-04-19T21:10:37.487Z,26.31
2023-04-19T21:12:42.555Z,26.56
2023-04-19T21:14:50.974Z,26.39
2023-04-19T21:16:56.090Z,27.41
2023-04-19T21:19:01.180Z,26.6
2023-04-19T21:21:06.289Z,26.7
2023-04-19T21:23:11.385Z,26.65
2023-04-19T21:25:16.439Z,26.51
2023-04-19T21:27:21.451Z,26.75
2023-04-19T21:29:26.544Z,27.08
2023-04-19T21:31:31.779Z,26.63
2023-04-19T21:33:36.909Z,26.54
2023-04-19T21:35:41.940Z,26.57
2023-04-19T21:37:46.995Z,26.5
2023-04-19T21:39:52.048Z,26.53
2023-04-19T21:41:57.135Z,26.6
2023-04-19T21:44:02.366Z,26.58
2023-04-19T21:46:07.855Z,26.6
2023-04-19T21:48:12.937Z,26.61
2023-04-19T21:50:18.074Z,26.63
2023-04-19T21:52:23.284Z,26.6
2023-04-19T21:54:36.322Z,26.58
2023-04-19T21:56:41.440Z,26.54
2023-04-19T21:58:46.598Z,26.56
2023-04-19T22:00:51.891Z,26.58
2023-04-19T22:02:57.499Z,26.57
2023-04-19T22:05:02.841Z,26.49
2023-04-19T22:07:07.946Z,26.47
2023-04-19T22:09:13.035Z,26.48
2023-04-19T22:11:18.082Z,26.5
2023-04-19T22:13:23.162Z,26.46
2023-04-19T22:15:28.465Z,26.45
2023-04-19T22:17:33.604Z,26.52
2023-04-19T22:19:38.790Z,26.6
2023-04-19T22:21:43.867Z,26.63
2023-04-19T22:23:48.939Z,26.65
2023-04-19T22:25:54.035Z,26.64
2023-04-19T22:27:59.123Z,26.65
2023-04-19T22:30:04.179Z,26.71
2023-04-19T22:32:09.446Z,26.71
2023-04-19T22:34:14.535Z,26.73
2023-04-19T22:36:19.593Z,26.84
2023-04-19T22:38:24.655Z,26.85
2023-04-19T22:40:29.708Z,26.89
2023-04-19T22:42:34.879Z,27
2023-04-19T22:44:39.900Z,26.89
2023-04-19T22:46:44.960Z,26.91
2023-04-19T22:48:50.317Z,26.88
2023-04-19T22:50:55.378Z,26.9
2023-04-19T22:53:00.533Z,26.95
2023-04-19T22:55:05.673Z,27.01
2023-04-19T22:57:10.757Z,26.94
2023-04-19T22:59:16.628Z,27
2023-04-19T23:01:21.992Z,27.04
2023-04-19T23:03:27.304Z,27.16
2023-04-19T23:05:32.354Z,27.17
2023-04-19T23:07:37.504Z,27.11
2023-04-19T23:09:42.608Z,27.16
2023-04-19T23:11:47.712Z,27.12
2023-04-19T23:13:52.765Z,27.16
2023-04-19T23:15:57.909Z,27.17
2023-04-19T23:18:03.405Z,27.14
2023-04-19T23:20:08.596Z,27.14
2023-04-19T23:22:13.626Z,27.13
2023-04-19T23:24:18.741Z,27.08
2023-04-19T23:26:23.884Z,27.14
2023-04-19T23:28:28.976Z,27.09
2023-04-19T23:30:34.053Z,27.1
2023-04-19T23:32:39.508Z,27.13
2023-04-19T23:34:44.683Z,27.15
2023-04-19T23:36:49.778Z,27.21
2023-04-19T23:38:54.814Z,27.18
2023-04-19T23:40:59.978Z,27.18
2023-04-19T23:43:05.184Z,27.22
2023-04-19T23:45:10.241Z,27.29
2023-04-19T23:47:15.452Z,27.37
2023-04-19T23:49:21.229Z,27.43
2023-04-19T23:51:26.274Z,27.48
2023-04-19T23:53:31.357Z,27.52
2023-04-19T23:55:36.388Z,27.58
2023-04-19T23:57:41.444Z,27.64
2023-04-19T23:59:46.532Z,27.7
